4WN2 weather

Swensen Airport
Vesper, Wisconsin, United States

Public forecast

Using degrees Fahrenheit for public forecast. Weather courtesy of forecast.io.

METAR (pilot weather report)

Closest report is Alexander Field South Wood County Airport, 7.2 nm (13.3 km) ESE. Retrieved 2019/08/25 20:54 UTC (17 minutes ago):

KISW 252054Z AUTO 14007KT 10SM SCT043 22/12 A3005 RMK AO2 SLP175 T02220122 58020

TAF (pilot weather forecast)

Closest forecast is Central Wisconsin Airport, 25.6 nm (47.4 km) NNE. Retrieved 2019/08/25 18:39 UTC (3 hours ago):

TAF KCWA 251736Z 2518/2618 14010KT P6SM SCT040 SCT200 TEMPO 2518/2521 BKN040 FM252100 15009G16KT P6SM SCT050 BKN200 FM260200 13007KT P6SM SCT035 BKN110 FM260600 13005KT P6SM BKN035 BKN090 FM261500 14009G15KT P6SM BKN025 BKN060